sensor_id;sensor_type;location;lat;lon;timestamp;P1;durP1;ratioP1;P2;durP2;ratioP2
67816;SDS011;54614;47.576;7.524;2023-11-21T00:00:18;3.00;;;1.70;;
67816;SDS011;54614;47.576;7.524;2023-11-21T00:02:45;3.33;;;1.87;;
67816;SDS011;54614;47.576;7.524;2023-11-21T00:05:12;2.90;;;1.90;;
67816;SDS011;54614;47.576;7.524;2023-11-21T00:07:39;2.37;;;1.47;;
67816;SDS011;54614;47.576;7.524;2023-11-21T00:10:07;2.93;;;1.80;;
67816;SDS011;54614;47.576;7.524;2023-11-21T00:12:34;2.10;;;1.77;;
67816;SDS011;54614;47.576;7.524;2023-11-21T00:15:01;3.00;;;1.67;;
67816;SDS011;54614;47.576;7.524;2023-11-21T00:17:27;2.50;;;1.73;;
67816;SDS011;54614;47.576;7.524;2023-11-21T00:19:53;2.50;;;1.90;;
67816;SDS011;54614;47.576;7.524;2023-11-21T00:22:19;1.87;;;1.67;;
67816;SDS011;54614;47.576;7.524;2023-11-21T00:24:45;3.90;;;1.50;;
67816;SDS011;54614;47.576;7.524;2023-11-21T00:27:12;3.00;;;1.70;;
67816;SDS011;54614;47.576;7.524;2023-11-21T00:29:39;2.40;;;1.60;;
67816;SDS011;54614;47.576;7.524;2023-11-21T00:32:05;1.87;;;1.30;;
67816;SDS011;54614;47.576;7.524;2023-11-21T00:34:32;2.70;;;1.70;;
67816;SDS011;54614;47.576;7.524;2023-11-21T00:36:58;2.17;;;1.60;;
67816;SDS011;54614;47.576;7.524;2023-11-21T00:39:24;3.00;;;1.60;;
67816;SDS011;54614;47.576;7.524;2023-11-21T00:41:51;2.67;;;1.60;;
67816;SDS011;54614;47.576;7.524;2023-11-21T00:44:17;1.97;;;1.50;;
67816;SDS011;54614;47.576;7.524;2023-11-21T00:46:43;3.97;;;1.70;;
67816;SDS011;54614;47.576;7.524;2023-11-21T00:49:09;2.60;;;1.70;;
67816;SDS011;54614;47.576;7.524;2023-11-21T00:51:35;2.23;;;1.60;;
67816;SDS011;54614;47.576;7.524;2023-11-21T00:54:01;2.47;;;1.77;;
67816;SDS011;54614;47.576;7.524;2023-11-21T00:56:27;1.53;;;1.43;;
67816;SDS011;54614;47.576;7.524;2023-11-21T00:58:53;2.43;;;1.50;;
67816;SDS011;54614;47.576;7.524;2023-11-21T01:01:20;1.43;;;1.33;;
67816;SDS011;54614;47.576;7.524;2023-11-21T01:03:49;2.40;;;1.50;;
67816;SDS011;54614;47.576;7.524;2023-11-21T01:06:15;4.47;;;1.50;;
67816;SDS011;54614;47.576;7.524;2023-11-21T01:08:41;1.60;;;1.50;;
67816;SDS011;54614;47.576;7.524;2023-11-21T01:11:09;1.90;;;1.40;;
67816;SDS011;54614;47.576;7.524;2023-11-21T01:13:40;1.87;;;1.53;;
67816;SDS011;54614;47.576;7.524;2023-11-21T01:16:07;1.83;;;1.50;;
67816;SDS011;54614;47.576;7.524;2023-11-21T01:18:34;1.70;;;1.30;;
67816;SDS011;54614;47.576;7.524;2023-11-21T01:21:01;2.20;;;1.30;;
67816;SDS011;54614;47.576;7.524;2023-11-21T01:23:26;1.37;;;1.27;;
67816;SDS011;54614;47.576;7.524;2023-11-21T01:25:53;2.03;;;1.60;;
67816;SDS011;54614;47.576;7.524;2023-11-21T01:28:21;2.57;;;1.50;;
67816;SDS011;54614;47.576;7.524;2023-11-21T01:30:48;1.93;;;1.40;;
67816;SDS011;54614;47.576;7.524;2023-11-21T01:33:14;1.50;;;1.40;;
67816;SDS011;54614;47.576;7.524;2023-11-21T01:35:43;1.50;;;1.30;;
67816;SDS011;54614;47.576;7.524;2023-11-21T01:38:11;1.53;;;1.30;;
67816;SDS011;54614;47.576;7.524;2023-11-21T01:40:37;1.53;;;1.40;;
67816;SDS011;54614;47.576;7.524;2023-11-21T01:43:03;1.27;;;1.17;;
67816;SDS011;54614;47.576;7.524;2023-11-21T01:45:29;1.57;;;1.20;;
67816;SDS011;54614;47.576;7.524;2023-11-21T01:47:58;2.27;;;1.30;;
67816;SDS011;54614;47.576;7.524;2023-11-21T01:50:25;1.97;;;1.30;;
67816;SDS011;54614;47.576;7.524;2023-11-21T01:52:53;1.37;;;1.20;;
67816;SDS011;54614;47.576;7.524;2023-11-21T01:55:19;1.90;;;1.30;;
67816;SDS011;54614;47.576;7.524;2023-11-21T01:57:45;2.17;;;1.17;;
67816;SDS011;54614;47.576;7.524;2023-11-21T02:00:12;2.17;;;1.20;;
67816;SDS011;54614;47.576;7.524;2023-11-21T02:02:44;1.97;;;1.30;;
67816;SDS011;54614;47.576;7.524;2023-11-21T02:05:11;2.27;;;1.20;;
67816;SDS011;54614;47.576;7.524;2023-11-21T02:07:40;1.80;;;1.10;;
67816;SDS011;54614;47.576;7.524;2023-11-21T02:10:10;1.47;;;1.30;;
67816;SDS011;54614;47.576;7.524;2023-11-21T02:12:40;1.40;;;1.30;;
67816;SDS011;54614;47.576;7.524;2023-11-21T02:15:07;1.30;;;1.20;;
67816;SDS011;54614;47.576;7.524;2023-11-21T02:17:43;1.30;;;1.20;;
67816;SDS011;54614;47.576;7.524;2023-11-21T02:20:10;2.20;;;1.17;;
67816;SDS011;54614;47.576;7.524;2023-11-21T02:22:40;1.43;;;1.17;;
67816;SDS011;54614;47.576;7.524;2023-11-21T02:25:09;2.37;;;1.10;;
67816;SDS011;54614;47.576;7.524;2023-11-21T02:27:34;3.33;;;1.40;;
67816;SDS011;54614;47.576;7.524;2023-11-21T02:30:01;2.70;;;1.17;;
67816;SDS011;54614;47.576;7.524;2023-11-21T02:32:29;1.30;;;1.17;;
67816;SDS011;54614;47.576;7.524;2023-11-21T02:34:56;1.70;;;1.10;;
67816;SDS011;54614;47.576;7.524;2023-11-21T02:37:26;2.23;;;1.03;;
67816;SDS011;54614;47.576;7.524;2023-11-21T02:39:52;1.20;;;1.10;;
67816;SDS011;54614;47.576;7.524;2023-11-21T02:42:18;2.00;;;1.00;;
67816;SDS011;54614;47.576;7.524;2023-11-21T02:44:43;2.27;;;0.97;;
67816;SDS011;54614;47.576;7.524;2023-11-21T02:47:09;2.87;;;1.20;;
67816;SDS011;54614;47.576;7.524;2023-11-21T02:49:35;2.47;;;1.20;;
67816;SDS011;54614;47.576;7.524;2023-11-21T02:52:01;1.60;;;1.23;;
67816;SDS011;54614;47.576;7.524;2023-11-21T02:54:27;1.63;;;1.10;;
67816;SDS011;54614;47.576;7.524;2023-11-21T02:56:53;1.30;;;1.20;;
67816;SDS011;54614;47.576;7.524;2023-11-21T02:59:19;1.73;;;1.20;;
67816;SDS011;54614;47.576;7.524;2023-11-21T03:01:45;2.10;;;1.20;;
67816;SDS011;54614;47.576;7.524;2023-11-21T03:04:11;1.30;;;1.20;;
67816;SDS011;54614;47.576;7.524;2023-11-21T03:06:42;1.63;;;1.37;;
67816;SDS011;54614;47.576;7.524;2023-11-21T03:09:10;2.53;;;1.10;;
67816;SDS011;54614;47.576;7.524;2023-11-21T03:11:39;1.27;;;1.17;;
67816;SDS011;54614;47.576;7.524;2023-11-21T03:14:05;1.37;;;1.07;;
67816;SDS011;54614;47.576;7.524;2023-11-21T03:16:34;1.30;;;1.20;;
67816;SDS011;54614;47.576;7.524;2023-11-21T03:19:00;1.10;;;1.00;;
67816;SDS011;54614;47.576;7.524;2023-11-21T03:21:26;1.00;;;0.90;;
67816;SDS011;54614;47.576;7.524;2023-11-21T03:23:52;1.30;;;1.20;;
67816;SDS011;54614;47.576;7.524;2023-11-21T03:26:18;1.17;;;1.10;;
67816;SDS011;54614;47.576;7.524;2023-11-21T03:28:43;1.97;;;1.17;;
67816;SDS011;54614;47.576;7.524;2023-11-21T03:31:11;1.00;;;1.00;;
67816;SDS011;54614;47.576;7.524;2023-11-21T03:33:36;1.10;;;1.00;;
67816;SDS011;54614;47.576;7.524;2023-11-21T03:36:02;1.00;;;0.90;;
67816;SDS011;54614;47.576;7.524;2023-11-21T03:38:29;1.77;;;1.20;;
67816;SDS011;54614;47.576;7.524;2023-11-21T03:40:54;2.37;;;1.20;;
67816;SDS011;54614;47.576;7.524;2023-11-21T03:43:20;2.37;;;1.10;;
67816;SDS011;54614;47.576;7.524;2023-11-21T03:45:46;1.27;;;0.93;;
67816;SDS011;54614;47.576;7.524;2023-11-21T03:48:12;0.90;;;0.90;;
67816;SDS011;54614;47.576;7.524;2023-11-21T03:50:38;1.83;;;1.00;;
67816;SDS011;54614;47.576;7.524;2023-11-21T03:53:04;1.90;;;1.00;;
67816;SDS011;54614;47.576;7.524;2023-11-21T03:55:29;1.00;;;1.00;;
67816;SDS011;54614;47.576;7.524;2023-11-21T03:57:57;2.33;;;1.00;;
67816;SDS011;54614;47.576;7.524;2023-11-21T04:00:24;2.30;;;1.10;;
67816;SDS011;54614;47.576;7.524;2023-11-21T04:02:53;2.00;;;1.10;;
67816;SDS011;54614;47.576;7.524;2023-11-21T04:05:19;1.10;;;0.90;;
67816;SDS011;54614;47.576;7.524;2023-11-21T04:07:49;1.00;;;1.00;;
67816;SDS011;54614;47.576;7.524;2023-11-21T04:10:18;1.20;;;1.00;;
67816;SDS011;54614;47.576;7.524;2023-11-21T04:12:44;1.13;;;1.00;;
67816;SDS011;54614;47.576;7.524;2023-11-21T04:15:11;3.70;;;1.03;;
67816;SDS011;54614;47.576;7.524;2023-11-21T04:17:38;1.10;;;1.00;;
67816;SDS011;54614;47.576;7.524;2023-11-21T04:20:05;0.93;;;0.93;;
67816;SDS011;54614;47.576;7.524;2023-11-21T04:22:35;2.67;;;1.00;;
67816;SDS011;54614;47.576;7.524;2023-11-21T04:25:05;1.60;;;1.10;;
67816;SDS011;54614;47.576;7.524;2023-11-21T04:27:36;0.80;;;0.80;;
67816;SDS011;54614;47.576;7.524;2023-11-21T04:30:04;1.37;;;1.00;;
67816;SDS011;54614;47.576;7.524;2023-11-21T04:32:31;1.00;;;1.00;;
67816;SDS011;54614;47.576;7.524;2023-11-21T04:34:57;2.60;;;0.90;;
67816;SDS011;54614;47.576;7.524;2023-11-21T04:37:22;1.80;;;0.90;;
67816;SDS011;54614;47.576;7.524;2023-11-21T04:39:49;0.90;;;0.90;;
67816;SDS011;54614;47.576;7.524;2023-11-21T04:42:15;1.20;;;0.97;;
67816;SDS011;54614;47.576;7.524;2023-11-21T04:44:41;1.15;;;0.90;;
67816;SDS011;54614;47.576;7.524;2023-11-21T04:47:07;1.77;;;1.00;;
67816;SDS011;54614;47.576;7.524;2023-11-21T04:49:33;1.53;;;0.87;;
67816;SDS011;54614;47.576;7.524;2023-11-21T04:51:59;1.20;;;1.10;;
67816;SDS011;54614;47.576;7.524;2023-11-21T04:54:26;1.10;;;1.00;;
67816;SDS011;54614;47.576;7.524;2023-11-21T04:56:52;2.57;;;0.97;;
67816;SDS011;54614;47.576;7.524;2023-11-21T04:59:18;1.00;;;1.00;;
67816;SDS011;54614;47.576;7.524;2023-11-21T05:01:43;0.80;;;0.80;;
67816;SDS011;54614;47.576;7.524;2023-11-21T05:04:09;0.80;;;0.80;;
67816;SDS011;54614;47.576;7.524;2023-11-21T05:06:35;0.80;;;0.80;;
67816;SDS011;54614;47.576;7.524;2023-11-21T05:09:00;0.93;;;0.93;;
67816;SDS011;54614;47.576;7.524;2023-11-21T05:11:27;2.27;;;0.90;;
67816;SDS011;54614;47.576;7.524;2023-11-21T05:13:54;1.30;;;0.90;;
67816;SDS011;54614;47.576;7.524;2023-11-21T05:16:25;1.50;;;0.90;;
67816;SDS011;54614;47.576;7.524;2023-11-21T05:18:52;2.57;;;1.00;;
67816;SDS011;54614;47.576;7.524;2023-11-21T05:21:18;1.27;;;0.90;;
67816;SDS011;54614;47.576;7.524;2023-11-21T05:23:46;1.43;;;0.90;;
67816;SDS011;54614;47.576;7.524;2023-11-21T05:26:11;0.87;;;0.80;;
67816;SDS011;54614;47.576;7.524;2023-11-21T05:28:37;0.80;;;0.80;;
67816;SDS011;54614;47.576;7.524;2023-11-21T05:31:03;3.13;;;0.90;;
67816;SDS011;54614;47.576;7.524;2023-11-21T05:33:29;0.97;;;0.83;;
67816;SDS011;54614;47.576;7.524;2023-11-21T05:35:54;1.40;;;0.83;;
67816;SDS011;54614;47.576;7.524;2023-11-21T05:38:20;0.90;;;0.90;;
67816;SDS011;54614;47.576;7.524;2023-11-21T05:40:46;1.20;;;0.90;;
67816;SDS011;54614;47.576;7.524;2023-11-21T05:43:12;0.90;;;0.90;;
67816;SDS011;54614;47.576;7.524;2023-11-21T05:45:38;0.97;;;0.80;;
67816;SDS011;54614;47.576;7.524;2023-11-21T05:48:04;2.00;;;0.90;;
67816;SDS011;54614;47.576;7.524;2023-11-21T05:50:31;1.53;;;0.80;;
67816;SDS011;54614;47.576;7.524;2023-11-21T05:52:57;1.57;;;0.90;;
67816;SDS011;54614;47.576;7.524;2023-11-21T05:55:25;1.03;;;0.80;;
67816;SDS011;54614;47.576;7.524;2023-11-21T05:57:51;0.90;;;0.90;;
67816;SDS011;54614;47.576;7.524;2023-11-21T06:00:17;5.00;;;0.98;;
67816;SDS011;54614;47.576;7.524;2023-11-21T06:02:46;0.77;;;0.77;;
67816;SDS011;54614;47.576;7.524;2023-11-21T06:05:17;2.17;;;0.85;;
67816;SDS011;54614;47.576;7.524;2023-11-21T06:07:44;2.20;;;1.13;;
67816;SDS011;54614;47.576;7.524;2023-11-21T06:10:11;0.80;;;0.80;;
67816;SDS011;54614;47.576;7.524;2023-11-21T06:12:39;0.80;;;0.80;;
67816;SDS011;54614;47.576;7.524;2023-11-21T06:15:07;1.23;;;0.75;;
67816;SDS011;54614;47.576;7.524;2023-11-21T06:17:38;1.15;;;0.90;;
67816;SDS011;54614;47.576;7.524;2023-11-21T06:20:06;1.05;;;0.80;;
67816;SDS011;54614;47.576;7.524;2023-11-21T06:22:35;2.65;;;0.90;;
67816;SDS011;54614;47.576;7.524;2023-11-21T06:25:02;1.47;;;0.77;;
67816;SDS011;54614;47.576;7.524;2023-11-21T06:27:33;0.60;;;0.60;;
67816;SDS011;54614;47.576;7.524;2023-11-21T06:30:02;2.75;;;0.98;;
67816;SDS011;54614;47.576;7.524;2023-11-21T06:32:29;1.33;;;0.90;;
67816;SDS011;54614;47.576;7.524;2023-11-21T06:34:55;0.97;;;0.97;;
67816;SDS011;54614;47.576;7.524;2023-11-21T06:37:24;4.03;;;1.20;;
67816;SDS011;54614;47.576;7.524;2023-11-21T06:39:54;8.27;;;1.35;;
67816;SDS011;54614;47.576;7.524;2023-11-21T06:42:21;14.43;;;1.60;;
67816;SDS011;54614;47.576;7.524;2023-11-21T06:44:49;8.10;;;1.40;;
67816;SDS011;54614;47.576;7.524;2023-11-21T06:47:24;4.57;;;1.33;;
67816;SDS011;54614;47.576;7.524;2023-11-21T06:49:51;1.52;;;0.90;;
67816;SDS011;54614;47.576;7.524;2023-11-21T06:52:18;2.80;;;0.85;;
67816;SDS011;54614;47.576;7.524;2023-11-21T06:54:45;3.03;;;0.93;;
67816;SDS011;54614;47.576;7.524;2023-11-21T06:57:12;2.13;;;0.90;;
67816;SDS011;54614;47.576;7.524;2023-11-21T06:59:38;1.63;;;0.98;;
67816;SDS011;54614;47.576;7.524;2023-11-21T07:02:04;2.67;;;1.00;;
67816;SDS011;54614;47.576;7.524;2023-11-21T07:04:31;1.65;;;0.80;;
67816;SDS011;54614;47.576;7.524;2023-11-21T07:06:58;3.10;;;1.08;;
67816;SDS011;54614;47.576;7.524;2023-11-21T07:09:24;2.55;;;0.90;;
67816;SDS011;54614;47.576;7.524;2023-11-21T07:11:51;2.78;;;0.95;;
67816;SDS011;54614;47.576;7.524;2023-11-21T07:14:17;1.40;;;0.80;;
67816;SDS011;54614;47.576;7.524;2023-11-21T07:16:44;2.35;;;1.00;;
67816;SDS011;54614;47.576;7.524;2023-11-21T07:19:11;2.15;;;0.82;;
67816;SDS011;54614;47.576;7.524;2023-11-21T07:21:38;1.30;;;0.93;;
67816;SDS011;54614;47.576;7.524;2023-11-21T07:24:04;0.70;;;0.70;;
67816;SDS011;54614;47.576;7.524;2023-11-21T07:26:32;1.05;;;0.85;;
67816;SDS011;54614;47.576;7.524;2023-11-21T07:28:59;2.40;;;0.80;;
67816;SDS011;54614;47.576;7.524;2023-11-21T07:31:28;1.77;;;0.70;;
67816;SDS011;54614;47.576;7.524;2023-11-21T07:33:55;0.93;;;0.73;;
67816;SDS011;54614;47.576;7.524;2023-11-21T07:36:24;2.00;;;0.88;;
67816;SDS011;54614;47.576;7.524;2023-11-21T07:38:50;1.83;;;0.90;;
67816;SDS011;54614;47.576;7.524;2023-11-21T07:41:17;2.15;;;0.93;;
67816;SDS011;54614;47.576;7.524;2023-11-21T07:43:46;0.60;;;0.60;;
67816;SDS011;54614;47.576;7.524;2023-11-21T07:46:12;4.67;;;0.80;;
67816;SDS011;54614;47.576;7.524;2023-11-21T07:48:39;0.97;;;0.80;;
67816;SDS011;54614;47.576;7.524;2023-11-21T07:51:07;2.20;;;0.70;;
67816;SDS011;54614;47.576;7.524;2023-11-21T07:53:34;2.75;;;0.70;;
67816;SDS011;54614;47.576;7.524;2023-11-21T07:56:04;1.47;;;0.80;;
67816;SDS011;54614;47.576;7.524;2023-11-21T07:58:35;0.80;;;0.80;;
67816;SDS011;54614;47.576;7.524;2023-11-21T08:01:02;1.48;;;0.70;;
67816;SDS011;54614;47.576;7.524;2023-11-21T08:03:29;3.03;;;0.70;;
67816;SDS011;54614;47.576;7.524;2023-11-21T08:05:55;0.70;;;0.70;;
67816;SDS011;54614;47.576;7.524;2023-11-21T08:08:24;0.53;;;0.50;;
67816;SDS011;54614;47.576;7.524;2023-11-21T08:10:52;0.93;;;0.60;;
67816;SDS011;54614;47.576;7.524;2023-11-21T08:13:26;0.70;;;0.70;;
67816;SDS011;54614;47.576;7.524;2023-11-21T08:15:55;1.15;;;0.63;;
67816;SDS011;54614;47.576;7.524;2023-11-21T08:18:26;0.75;;;0.75;;
67816;SDS011;54614;47.576;7.524;2023-11-21T08:20:52;2.05;;;0.70;;
67816;SDS011;54614;47.576;7.524;2023-11-21T08:23:20;0.90;;;0.70;;
67816;SDS011;54614;47.576;7.524;2023-11-21T08:25:50;0.60;;;0.60;;
67816;SDS011;54614;47.576;7.524;2023-11-21T08:28:17;0.73;;;0.73;;
67816;SDS011;54614;47.576;7.524;2023-11-21T08:30:42;0.60;;;0.60;;
67816;SDS011;54614;47.576;7.524;2023-11-21T08:33:09;0.77;;;0.77;;
67816;SDS011;54614;47.576;7.524;2023-11-21T08:35:36;0.63;;;0.63;;
67816;SDS011;54614;47.576;7.524;2023-11-21T08:38:03;0.85;;;0.75;;
67816;SDS011;54614;47.576;7.524;2023-11-21T08:40:29;1.48;;;0.70;;
67816;SDS011;54614;47.576;7.524;2023-11-21T08:42:55;2.78;;;0.80;;
67816;SDS011;54614;47.576;7.524;2023-11-21T08:45:23;0.70;;;0.70;;
67816;SDS011;54614;47.576;7.524;2023-11-21T08:47:51;0.93;;;0.88;;
67816;SDS011;54614;47.576;7.524;2023-11-21T08:50:17;1.60;;;0.90;;
67816;SDS011;54614;47.576;7.524;2023-11-21T08:52:44;0.70;;;0.70;;
67816;SDS011;54614;47.576;7.524;2023-11-21T08:55:11;1.73;;;0.70;;
67816;SDS011;54614;47.576;7.524;2023-11-21T08:57:40;1.45;;;0.80;;
67816;SDS011;54614;47.576;7.524;2023-11-21T09:00:09;1.08;;;0.60;;
67816;SDS011;54614;47.576;7.524;2023-11-21T09:02:41;0.65;;;0.65;;
67816;SDS011;54614;47.576;7.524;2023-11-21T09:05:07;0.60;;;0.60;;
67816;SDS011;54614;47.576;7.524;2023-11-21T09:07:38;2.03;;;0.73;;
67816;SDS011;54614;47.576;7.524;2023-11-21T09:10:06;1.88;;;0.70;;
67816;SDS011;54614;47.576;7.524;2023-11-21T09:12:34;0.67;;;0.67;;
67816;SDS011;54614;47.576;7.524;2023-11-21T09:15:03;0.70;;;0.70;;
67816;SDS011;54614;47.576;7.524;2023-11-21T09:17:33;0.70;;;0.70;;
67816;SDS011;54614;47.576;7.524;2023-11-21T09:19:59;0.50;;;0.50;;
67816;SDS011;54614;47.576;7.524;2023-11-21T09:22:25;0.70;;;0.70;;
67816;SDS011;54614;47.576;7.524;2023-11-21T09:24:52;0.60;;;0.60;;
67816;SDS011;54614;47.576;7.524;2023-11-21T09:27:18;0.70;;;0.70;;
67816;SDS011;54614;47.576;7.524;2023-11-21T09:29:44;0.73;;;0.70;;
67816;SDS011;54614;47.576;7.524;2023-11-21T09:32:12;1.63;;;0.70;;
67816;SDS011;54614;47.576;7.524;2023-11-21T09:34:39;0.63;;;0.63;;
67816;SDS011;54614;47.576;7.524;2023-11-21T09:37:06;1.27;;;0.80;;
67816;SDS011;54614;47.576;7.524;2023-11-21T09:39:33;0.90;;;0.60;;
67816;SDS011;54614;47.576;7.524;2023-11-21T09:47:30;0.60;;;0.60;;
67816;SDS011;54614;47.576;7.524;2023-11-21T09:50:01;1.27;;;0.70;;
67816;SDS011;54614;47.576;7.524;2023-11-21T09:52:27;0.80;;;0.80;;
67816;SDS011;54614;47.576;7.524;2023-11-21T09:54:54;0.75;;;0.70;;
67816;SDS011;54614;47.576;7.524;2023-11-21T09:57:24;0.68;;;0.68;;
67816;SDS011;54614;47.576;7.524;2023-11-21T09:59:50;1.75;;;0.70;;
67816;SDS011;54614;47.576;7.524;2023-11-21T10:02:27;0.70;;;0.70;;
67816;SDS011;54614;47.576;7.524;2023-11-21T10:04:55;0.60;;;0.60;;
67816;SDS011;54614;47.576;7.524;2023-11-21T10:07:21;0.70;;;0.70;;
67816;SDS011;54614;47.576;7.524;2023-11-21T10:09:48;0.60;;;0.50;;
67816;SDS011;54614;47.576;7.524;2023-11-21T10:12:18;0.77;;;0.77;;
67816;SDS011;54614;47.576;7.524;2023-11-21T10:14:47;0.88;;;0.75;;
67816;SDS011;54614;47.576;7.524;2023-11-21T10:17:17;1.33;;;0.70;;
67816;SDS011;54614;47.576;7.524;2023-11-21T10:19:46;0.80;;;0.80;;
67816;SDS011;54614;47.576;7.524;2023-11-21T10:22:13;0.68;;;0.68;;
67816;SDS011;54614;47.576;7.524;2023-11-21T10:24:41;1.88;;;0.90;;
67816;SDS011;54614;47.576;7.524;2023-11-21T10:27:08;0.70;;;0.70;;
67816;SDS011;54614;47.576;7.524;2023-11-21T10:29:34;0.70;;;0.70;;
67816;SDS011;54614;47.576;7.524;2023-11-21T10:32:01;0.57;;;0.57;;
67816;SDS011;54614;47.576;7.524;2023-11-21T10:34:28;0.70;;;0.70;;
67816;SDS011;54614;47.576;7.524;2023-11-21T10:36:54;0.77;;;0.77;;
67816;SDS011;54614;47.576;7.524;2023-11-21T10:39:22;0.60;;;0.60;;
67816;SDS011;54614;47.576;7.524;2023-11-21T10:41:52;0.70;;;0.70;;
67816;SDS011;54614;47.576;7.524;2023-11-21T10:44:20;0.57;;;0.57;;
67816;SDS011;54614;47.576;7.524;2023-11-21T10:47:04;0.60;;;0.60;;
67816;SDS011;54614;47.576;7.524;2023-11-21T10:49:30;0.90;;;0.90;;
67816;SDS011;54614;47.576;7.524;2023-11-21T10:51:56;0.93;;;0.77;;
67816;SDS011;54614;47.576;7.524;2023-11-21T10:54:23;0.60;;;0.60;;
67816;SDS011;54614;47.576;7.524;2023-11-21T10:56:59;0.70;;;0.70;;
67816;SDS011;54614;47.576;7.524;2023-11-21T10:59:30;0.70;;;0.70;;
67816;SDS011;54614;47.576;7.524;2023-11-21T11:01:59;0.70;;;0.70;;
67816;SDS011;54614;47.576;7.524;2023-11-21T11:04:31;0.70;;;0.70;;
67816;SDS011;54614;47.576;7.524;2023-11-21T11:07:01;0.70;;;0.70;;
67816;SDS011;54614;47.576;7.524;2023-11-21T11:09:28;0.60;;;0.60;;
67816;SDS011;54614;47.576;7.524;2023-11-21T11:11:59;0.63;;;0.63;;
67816;SDS011;54614;47.576;7.524;2023-11-21T11:14:27;0.80;;;0.80;;
67816;SDS011;54614;47.576;7.524;2023-11-21T11:16:54;0.73;;;0.73;;
67816;SDS011;54614;47.576;7.524;2023-11-21T11:19:20;0.70;;;0.70;;
67816;SDS011;54614;47.576;7.524;2023-11-21T11:27:56;1.05;;;0.70;;
67816;SDS011;54614;47.576;7.524;2023-11-21T11:31:05;0.90;;;0.90;;
67816;SDS011;54614;47.576;7.524;2023-11-21T11:33:58;0.80;;;0.80;;
67816;SDS011;54614;47.576;7.524;2023-11-21T11:39:29;0.60;;;0.60;;
67816;SDS011;54614;47.576;7.524;2023-11-21T11:42:03;0.70;;;0.70;;
67816;SDS011;54614;47.576;7.524;2023-11-21T11:47:14;0.70;;;0.70;;
67816;SDS011;54614;47.576;7.524;2023-11-21T11:50:01;0.60;;;0.60;;
67816;SDS011;54614;47.576;7.524;2023-11-21T11:52:48;0.60;;;0.60;;
67816;SDS011;54614;47.576;7.524;2023-11-21T11:55:17;1.50;;;0.65;;
67816;SDS011;54614;47.576;7.524;2023-11-21T11:57:46;0.70;;;0.70;;
67816;SDS011;54614;47.576;7.524;2023-11-21T12:00:21;0.70;;;0.70;;
67816;SDS011;54614;47.576;7.524;2023-11-21T12:03:02;0.70;;;0.70;;
67816;SDS011;54614;47.576;7.524;2023-11-21T12:05:31;0.60;;;0.60;;
67816;SDS011;54614;47.576;7.524;2023-11-21T12:08:01;0.68;;;0.68;;
67816;SDS011;54614;47.576;7.524;2023-11-21T12:10:33;0.63;;;0.63;;
67816;SDS011;54614;47.576;7.524;2023-11-21T12:13:02;0.73;;;0.73;;
67816;SDS011;54614;47.576;7.524;2023-11-21T12:15:36;0.70;;;0.70;;
67816;SDS011;54614;47.576;7.524;2023-11-21T12:18:03;0.73;;;0.73;;
67816;SDS011;54614;47.576;7.524;2023-11-21T12:20:30;0.60;;;0.60;;
67816;SDS011;54614;47.576;7.524;2023-11-21T12:23:00;0.70;;;0.70;;
67816;SDS011;54614;47.576;7.524;2023-11-21T12:25:27;0.73;;;0.73;;
67816;SDS011;54614;47.576;7.524;2023-11-21T12:27:57;0.60;;;0.60;;
67816;SDS011;54614;47.576;7.524;2023-11-21T12:30:26;0.60;;;0.60;;
67816;SDS011;54614;47.576;7.524;2023-11-21T12:32:56;0.70;;;0.70;;
67816;SDS011;54614;47.576;7.524;2023-11-21T12:35:25;0.63;;;0.63;;
67816;SDS011;54614;47.576;7.524;2023-11-21T12:38:01;0.70;;;0.70;;
67816;SDS011;54614;47.576;7.524;2023-11-21T12:40:34;0.70;;;0.70;;
67816;SDS011;54614;47.576;7.524;2023-11-21T12:43:00;0.65;;;0.65;;
67816;SDS011;54614;47.576;7.524;2023-11-21T12:45:29;0.70;;;0.70;;
67816;SDS011;54614;47.576;7.524;2023-11-21T12:47:56;0.80;;;0.80;;
67816;SDS011;54614;47.576;7.524;2023-11-21T12:50:32;0.80;;;0.80;;
67816;SDS011;54614;47.576;7.524;2023-11-21T12:53:05;0.60;;;0.60;;
67816;SDS011;54614;47.576;7.524;2023-11-21T12:55:37;0.70;;;0.70;;
67816;SDS011;54614;47.576;7.524;2023-11-21T12:58:05;0.70;;;0.70;;
67816;SDS011;54614;47.576;7.524;2023-11-21T13:03:14;0.70;;;0.70;;
67816;SDS011;54614;47.576;7.524;2023-11-21T13:05:48;0.67;;;0.67;;
67816;SDS011;54614;47.576;7.524;2023-11-21T13:08:19;0.70;;;0.70;;
67816;SDS011;54614;47.576;7.524;2023-11-21T13:10:49;0.55;;;0.55;;
67816;SDS011;54614;47.576;7.524;2023-11-21T13:13:21;0.57;;;0.57;;
67816;SDS011;54614;47.576;7.524;2023-11-21T13:18:21;0.75;;;0.75;;
67816;SDS011;54614;47.576;7.524;2023-11-21T13:20:48;0.70;;;0.70;;
67816;SDS011;54614;47.576;7.524;2023-11-21T13:23:15;0.80;;;0.80;;
67816;SDS011;54614;47.576;7.524;2023-11-21T13:25:41;0.70;;;0.70;;
67816;SDS011;54614;47.576;7.524;2023-11-21T13:28:10;0.70;;;0.70;;
67816;SDS011;54614;47.576;7.524;2023-11-21T13:30:37;0.73;;;0.70;;
67816;SDS011;54614;47.576;7.524;2023-11-21T13:33:05;0.70;;;0.70;;
67816;SDS011;54614;47.576;7.524;2023-11-21T13:35:36;0.70;;;0.70;;
67816;SDS011;54614;47.576;7.524;2023-11-21T13:38:07;0.60;;;0.60;;
67816;SDS011;54614;47.576;7.524;2023-11-21T13:40:37;0.60;;;0.60;;
67816;SDS011;54614;47.576;7.524;2023-11-21T13:43:09;0.80;;;0.80;;
67816;SDS011;54614;47.576;7.524;2023-11-21T13:45:42;0.60;;;0.60;;
67816;SDS011;54614;47.576;7.524;2023-11-21T13:48:10;0.60;;;0.60;;
67816;SDS011;54614;47.576;7.524;2023-11-21T13:50:41;0.70;;;0.70;;
67816;SDS011;54614;47.576;7.524;2023-11-21T13:53:34;0.70;;;0.70;;
67816;SDS011;54614;47.576;7.524;2023-11-21T13:56:02;0.60;;;0.60;;
67816;SDS011;54614;47.576;7.524;2023-11-21T13:58:29;0.70;;;0.70;;
67816;SDS011;54614;47.576;7.524;2023-11-21T14:01:15;0.70;;;0.70;;
67816;SDS011;54614;47.576;7.524;2023-11-21T14:04:02;0.70;;;0.70;;
67816;SDS011;54614;47.576;7.524;2023-11-21T14:06:48;0.60;;;0.60;;
67816;SDS011;54614;47.576;7.524;2023-11-21T14:09:18;0.60;;;0.60;;
67816;SDS011;54614;47.576;7.524;2023-11-21T14:12:00;0.70;;;0.70;;
67816;SDS011;54614;47.576;7.524;2023-11-21T14:14:31;0.70;;;0.70;;
67816;SDS011;54614;47.576;7.524;2023-11-21T14:16:57;0.60;;;0.60;;
67816;SDS011;54614;47.576;7.524;2023-11-21T14:19:24;0.70;;;0.70;;
67816;SDS011;54614;47.576;7.524;2023-11-21T14:21:57;0.70;;;0.70;;
67816;SDS011;54614;47.576;7.524;2023-11-21T14:24:23;0.70;;;0.70;;
67816;SDS011;54614;47.576;7.524;2023-11-21T14:26:49;0.70;;;0.70;;
67816;SDS011;54614;47.576;7.524;2023-11-21T14:29:16;0.68;;;0.68;;
67816;SDS011;54614;47.576;7.524;2023-11-21T14:31:45;0.70;;;0.70;;
67816;SDS011;54614;47.576;7.524;2023-11-21T14:34:11;0.70;;;0.70;;
67816;SDS011;54614;47.576;7.524;2023-11-21T14:36:38;0.70;;;0.70;;
67816;SDS011;54614;47.576;7.524;2023-11-21T14:39:05;0.70;;;0.70;;
67816;SDS011;54614;47.576;7.524;2023-11-21T14:41:53;0.60;;;0.60;;
67816;SDS011;54614;47.576;7.524;2023-11-21T14:44:23;0.60;;;0.60;;
67816;SDS011;54614;47.576;7.524;2023-11-21T14:46:51;0.70;;;0.70;;
67816;SDS011;54614;47.576;7.524;2023-11-21T14:49:19;0.73;;;0.73;;
67816;SDS011;54614;47.576;7.524;2023-11-21T14:51:52;0.60;;;0.60;;
67816;SDS011;54614;47.576;7.524;2023-11-21T14:54:24;0.73;;;0.73;;
67816;SDS011;54614;47.576;7.524;2023-11-21T14:57:10;0.60;;;0.60;;
67816;SDS011;54614;47.576;7.524;2023-11-21T14:59:45;0.70;;;0.70;;
67816;SDS011;54614;47.576;7.524;2023-11-21T15:02:17;0.70;;;0.70;;
67816;SDS011;54614;47.576;7.524;2023-11-21T15:04:48;0.83;;;0.70;;
67816;SDS011;54614;47.576;7.524;2023-11-21T15:07:17;0.70;;;0.70;;
67816;SDS011;54614;47.576;7.524;2023-11-21T15:09:43;0.60;;;0.60;;
67816;SDS011;54614;47.576;7.524;2023-11-21T15:12:10;0.70;;;0.70;;
67816;SDS011;54614;47.576;7.524;2023-11-21T15:14:50;0.60;;;0.60;;
67816;SDS011;54614;47.576;7.524;2023-11-21T15:17:22;0.70;;;0.70;;